sensor_id;sensor_type;location;lat;lon;timestamp;P1;durP1;ratioP1;P2;durP2;ratioP2
49860;SDS011;35761;48.826;9.238;2024-01-10T00:00:12;23.98;;;10.60;;
49860;SDS011;35761;48.826;9.238;2024-01-10T00:02:38;24.45;;;10.93;;
49860;SDS011;35761;48.826;9.238;2024-01-10T00:05:03;26.65;;;11.93;;
49860;SDS011;35761;48.826;9.238;2024-01-10T00:07:29;26.50;;;11.15;;
49860;SDS011;35761;48.826;9.238;2024-01-10T00:09:55;25.70;;;11.40;;
49860;SDS011;35761;48.826;9.238;2024-01-10T00:12:21;29.52;;;12.27;;
49860;SDS011;35761;48.826;9.238;2024-01-10T00:14:46;27.25;;;11.50;;
49860;SDS011;35761;48.826;9.238;2024-01-10T00:17:12;26.15;;;11.70;;
49860;SDS011;35761;48.826;9.238;2024-01-10T00:19:37;26.08;;;10.35;;
49860;SDS011;35761;48.826;9.238;2024-01-10T00:22:03;28.52;;;12.63;;
49860;SDS011;35761;48.826;9.238;2024-01-10T00:24:28;26.30;;;11.50;;
49860;SDS011;35761;48.826;9.238;2024-01-10T00:26:54;24.88;;;11.57;;
49860;SDS011;35761;48.826;9.238;2024-01-10T00:29:20;24.55;;;11.98;;
49860;SDS011;35761;48.826;9.238;2024-01-10T00:31:46;25.52;;;11.32;;
49860;SDS011;35761;48.826;9.238;2024-01-10T00:34:11;31.77;;;12.30;;
49860;SDS011;35761;48.826;9.238;2024-01-10T00:36:37;26.60;;;12.98;;
49860;SDS011;35761;48.826;9.238;2024-01-10T00:39:02;24.75;;;11.32;;
49860;SDS011;35761;48.826;9.238;2024-01-10T00:41:29;26.33;;;12.23;;
49860;SDS011;35761;48.826;9.238;2024-01-10T00:43:54;29.85;;;11.85;;
49860;SDS011;35761;48.826;9.238;2024-01-10T00:46:19;26.63;;;12.05;;
49860;SDS011;35761;48.826;9.238;2024-01-10T00:48:45;26.83;;;12.27;;
49860;SDS011;35761;48.826;9.238;2024-01-10T00:51:11;27.20;;;11.82;;
49860;SDS011;35761;48.826;9.238;2024-01-10T00:53:36;24.08;;;11.93;;
49860;SDS011;35761;48.826;9.238;2024-01-10T00:56:04;26.35;;;11.23;;
49860;SDS011;35761;48.826;9.238;2024-01-10T00:58:30;24.05;;;12.18;;
49860;SDS011;35761;48.826;9.238;2024-01-10T01:00:55;25.73;;;11.25;;
49860;SDS011;35761;48.826;9.238;2024-01-10T01:03:21;24.75;;;10.77;;
49860;SDS011;35761;48.826;9.238;2024-01-10T01:05:46;22.35;;;11.05;;
49860;SDS011;35761;48.826;9.238;2024-01-10T01:08:12;24.73;;;11.27;;
49860;SDS011;35761;48.826;9.238;2024-01-10T01:10:37;25.85;;;11.40;;
49860;SDS011;35761;48.826;9.238;2024-01-10T01:13:03;22.45;;;9.93;;
49860;SDS011;35761;48.826;9.238;2024-01-10T01:15:28;23.08;;;11.55;;
49860;SDS011;35761;48.826;9.238;2024-01-10T01:17:54;21.85;;;10.32;;
49860;SDS011;35761;48.826;9.238;2024-01-10T01:20:19;25.42;;;10.95;;
49860;SDS011;35761;48.826;9.238;2024-01-10T01:22:45;21.63;;;10.40;;
49860;SDS011;35761;48.826;9.238;2024-01-10T01:25:10;21.00;;;11.13;;
49860;SDS011;35761;48.826;9.238;2024-01-10T01:27:35;29.77;;;9.85;;
49860;SDS011;35761;48.826;9.238;2024-01-10T01:30:01;26.17;;;11.48;;
49860;SDS011;35761;48.826;9.238;2024-01-10T01:32:27;25.48;;;10.65;;
49860;SDS011;35761;48.826;9.238;2024-01-10T01:34:52;22.90;;;10.75;;
49860;SDS011;35761;48.826;9.238;2024-01-10T01:37:17;24.27;;;10.60;;
49860;SDS011;35761;48.826;9.238;2024-01-10T01:39:43;20.83;;;10.73;;
49860;SDS011;35761;48.826;9.238;2024-01-10T01:42:09;23.08;;;11.00;;
49860;SDS011;35761;48.826;9.238;2024-01-10T01:44:34;25.67;;;10.90;;
49860;SDS011;35761;48.826;9.238;2024-01-10T01:47:00;21.40;;;10.45;;
49860;SDS011;35761;48.826;9.238;2024-01-10T01:49:26;22.80;;;10.45;;
49860;SDS011;35761;48.826;9.238;2024-01-10T01:51:52;21.30;;;10.43;;
49860;SDS011;35761;48.826;9.238;2024-01-10T01:54:17;21.60;;;9.70;;
49860;SDS011;35761;48.826;9.238;2024-01-10T01:56:44;24.75;;;10.38;;
49860;SDS011;35761;48.826;9.238;2024-01-10T01:59:10;23.75;;;10.63;;
49860;SDS011;35761;48.826;9.238;2024-01-10T02:01:36;26.60;;;10.50;;
49860;SDS011;35761;48.826;9.238;2024-01-10T02:04:01;26.17;;;11.30;;
49860;SDS011;35761;48.826;9.238;2024-01-10T02:06:28;25.00;;;11.05;;
49860;SDS011;35761;48.826;9.238;2024-01-10T02:08:54;23.60;;;10.30;;
49860;SDS011;35761;48.826;9.238;2024-01-10T02:11:21;33.85;;;11.82;;
49860;SDS011;35761;48.826;9.238;2024-01-10T02:13:47;25.88;;;11.68;;
49860;SDS011;35761;48.826;9.238;2024-01-10T02:16:12;27.75;;;11.23;;
49860;SDS011;35761;48.826;9.238;2024-01-10T02:18:38;25.30;;;12.10;;
49860;SDS011;35761;48.826;9.238;2024-01-10T02:21:03;26.92;;;11.02;;
49860;SDS011;35761;48.826;9.238;2024-01-10T02:23:29;30.88;;;13.38;;
49860;SDS011;35761;48.826;9.238;2024-01-10T02:25:54;24.55;;;11.32;;
49860;SDS011;35761;48.826;9.238;2024-01-10T02:28:20;23.65;;;11.15;;
49860;SDS011;35761;48.826;9.238;2024-01-10T02:30:45;22.98;;;10.23;;
49860;SDS011;35761;48.826;9.238;2024-01-10T02:33:12;24.13;;;10.77;;
49860;SDS011;35761;48.826;9.238;2024-01-10T02:35:37;29.30;;;10.95;;
49860;SDS011;35761;48.826;9.238;2024-01-10T02:38:03;22.75;;;10.65;;
49860;SDS011;35761;48.826;9.238;2024-01-10T02:40:29;22.10;;;10.38;;
49860;SDS011;35761;48.826;9.238;2024-01-10T02:42:54;26.17;;;11.35;;
49860;SDS011;35761;48.826;9.238;2024-01-10T02:45:19;27.52;;;10.43;;
49860;SDS011;35761;48.826;9.238;2024-01-10T02:47:45;25.00;;;10.68;;
49860;SDS011;35761;48.826;9.238;2024-01-10T02:50:10;23.90;;;10.35;;
49860;SDS011;35761;48.826;9.238;2024-01-10T02:52:36;23.02;;;10.10;;
49860;SDS011;35761;48.826;9.238;2024-01-10T02:55:01;19.85;;;10.07;;
49860;SDS011;35761;48.826;9.238;2024-01-10T02:57:27;19.73;;;9.55;;
49860;SDS011;35761;48.826;9.238;2024-01-10T02:59:52;27.25;;;10.55;;
49860;SDS011;35761;48.826;9.238;2024-01-10T03:02:18;24.40;;;10.68;;
49860;SDS011;35761;48.826;9.238;2024-01-10T03:04:43;21.85;;;10.18;;
49860;SDS011;35761;48.826;9.238;2024-01-10T03:07:09;22.90;;;10.45;;
49860;SDS011;35761;48.826;9.238;2024-01-10T03:09:35;25.33;;;10.18;;
49860;SDS011;35761;48.826;9.238;2024-01-10T03:12:00;29.48;;;10.88;;
49860;SDS011;35761;48.826;9.238;2024-01-10T03:14:26;20.13;;;10.05;;
49860;SDS011;35761;48.826;9.238;2024-01-10T03:16:51;25.10;;;11.27;;
49860;SDS011;35761;48.826;9.238;2024-01-10T03:19:18;24.55;;;10.77;;
49860;SDS011;35761;48.826;9.238;2024-01-10T03:21:43;26.63;;;11.23;;
49860;SDS011;35761;48.826;9.238;2024-01-10T03:24:09;23.88;;;10.63;;
49860;SDS011;35761;48.826;9.238;2024-01-10T03:26:34;24.65;;;10.57;;
49860;SDS011;35761;48.826;9.238;2024-01-10T03:29:00;26.60;;;11.50;;
49860;SDS011;35761;48.826;9.238;2024-01-10T03:31:26;22.25;;;10.13;;
49860;SDS011;35761;48.826;9.238;2024-01-10T03:33:53;21.35;;;10.60;;
49860;SDS011;35761;48.826;9.238;2024-01-10T03:36:18;26.95;;;10.98;;
49860;SDS011;35761;48.826;9.238;2024-01-10T03:38:44;24.50;;;9.52;;
49860;SDS011;35761;48.826;9.238;2024-01-10T03:41:13;24.52;;;11.50;;
49860;SDS011;35761;48.826;9.238;2024-01-10T03:43:39;27.40;;;12.18;;
49860;SDS011;35761;48.826;9.238;2024-01-10T03:46:04;22.85;;;10.57;;
49860;SDS011;35761;48.826;9.238;2024-01-10T03:48:31;22.42;;;10.05;;
49860;SDS011;35761;48.826;9.238;2024-01-10T03:50:56;23.08;;;10.15;;
49860;SDS011;35761;48.826;9.238;2024-01-10T03:53:22;24.20;;;11.20;;
49860;SDS011;35761;48.826;9.238;2024-01-10T03:55:47;25.27;;;11.82;;
49860;SDS011;35761;48.826;9.238;2024-01-10T03:58:12;23.17;;;10.95;;
49860;SDS011;35761;48.826;9.238;2024-01-10T04:00:38;21.50;;;11.57;;
49860;SDS011;35761;48.826;9.238;2024-01-10T04:03:03;25.95;;;11.07;;
49860;SDS011;35761;48.826;9.238;2024-01-10T04:05:29;22.75;;;9.57;;
49860;SDS011;35761;48.826;9.238;2024-01-10T04:07:54;24.15;;;10.77;;
49860;SDS011;35761;48.826;9.238;2024-01-10T04:10:22;25.05;;;10.20;;
49860;SDS011;35761;48.826;9.238;2024-01-10T04:12:48;24.98;;;10.27;;
49860;SDS011;35761;48.826;9.238;2024-01-10T04:15:13;29.15;;;11.07;;
49860;SDS011;35761;48.826;9.238;2024-01-10T04:17:39;20.98;;;11.35;;
49860;SDS011;35761;48.826;9.238;2024-01-10T04:20:04;24.50;;;12.82;;
49860;SDS011;35761;48.826;9.238;2024-01-10T04:22:30;23.38;;;11.15;;
49860;SDS011;35761;48.826;9.238;2024-01-10T04:25:00;25.88;;;10.73;;
49860;SDS011;35761;48.826;9.238;2024-01-10T04:27:26;25.65;;;9.98;;
49860;SDS011;35761;48.826;9.238;2024-01-10T04:29:52;25.15;;;10.00;;
49860;SDS011;35761;48.826;9.238;2024-01-10T04:32:17;26.27;;;11.35;;
49860;SDS011;35761;48.826;9.238;2024-01-10T04:34:43;29.88;;;13.20;;
49860;SDS011;35761;48.826;9.238;2024-01-10T04:37:08;28.17;;;12.05;;
49860;SDS011;35761;48.826;9.238;2024-01-10T04:39:34;23.23;;;11.00;;
49860;SDS011;35761;48.826;9.238;2024-01-10T04:42:00;27.10;;;12.30;;
49860;SDS011;35761;48.826;9.238;2024-01-10T04:44:26;26.27;;;11.23;;
49860;SDS011;35761;48.826;9.238;2024-01-10T04:46:51;24.48;;;11.45;;
49860;SDS011;35761;48.826;9.238;2024-01-10T04:49:16;28.17;;;12.55;;
49860;SDS011;35761;48.826;9.238;2024-01-10T04:51:42;27.00;;;12.35;;
49860;SDS011;35761;48.826;9.238;2024-01-10T04:54:08;24.02;;;11.15;;
49860;SDS011;35761;48.826;9.238;2024-01-10T04:56:34;26.10;;;11.13;;
49860;SDS011;35761;48.826;9.238;2024-01-10T04:59:01;20.88;;;10.43;;
49860;SDS011;35761;48.826;9.238;2024-01-10T05:01:27;22.75;;;10.55;;
49860;SDS011;35761;48.826;9.238;2024-01-10T05:03:53;22.02;;;9.88;;
49860;SDS011;35761;48.826;9.238;2024-01-10T05:06:18;23.17;;;10.25;;
49860;SDS011;35761;48.826;9.238;2024-01-10T05:08:46;27.60;;;12.13;;
49860;SDS011;35761;48.826;9.238;2024-01-10T05:11:12;22.13;;;11.00;;
49860;SDS011;35761;48.826;9.238;2024-01-10T05:13:38;26.10;;;12.13;;
49860;SDS011;35761;48.826;9.238;2024-01-10T05:16:05;24.23;;;11.10;;
49860;SDS011;35761;48.826;9.238;2024-01-10T05:18:30;24.42;;;10.57;;
49860;SDS011;35761;48.826;9.238;2024-01-10T05:20:56;23.08;;;10.50;;
49860;SDS011;35761;48.826;9.238;2024-01-10T05:23:22;22.05;;;10.27;;
49860;SDS011;35761;48.826;9.238;2024-01-10T05:25:48;20.65;;;10.23;;
49860;SDS011;35761;48.826;9.238;2024-01-10T05:28:14;24.35;;;10.35;;
49860;SDS011;35761;48.826;9.238;2024-01-10T05:30:39;24.40;;;10.48;;
49860;SDS011;35761;48.826;9.238;2024-01-10T05:33:04;28.45;;;10.82;;
49860;SDS011;35761;48.826;9.238;2024-01-10T05:35:31;26.92;;;10.77;;
49860;SDS011;35761;48.826;9.238;2024-01-10T05:37:56;22.67;;;10.60;;
49860;SDS011;35761;48.826;9.238;2024-01-10T05:40:22;23.30;;;10.63;;
49860;SDS011;35761;48.826;9.238;2024-01-10T05:42:48;25.35;;;11.35;;
49860;SDS011;35761;48.826;9.238;2024-01-10T05:45:14;27.92;;;11.88;;
49860;SDS011;35761;48.826;9.238;2024-01-10T05:47:42;31.52;;;12.35;;
49860;SDS011;35761;48.826;9.238;2024-01-10T05:50:08;23.67;;;10.88;;
49860;SDS011;35761;48.826;9.238;2024-01-10T05:52:34;24.65;;;11.02;;
49860;SDS011;35761;48.826;9.238;2024-01-10T05:54:59;26.60;;;10.77;;
49860;SDS011;35761;48.826;9.238;2024-01-10T05:57:27;31.55;;;11.68;;
49860;SDS011;35761;48.826;9.238;2024-01-10T05:59:53;32.63;;;11.57;;
49860;SDS011;35761;48.826;9.238;2024-01-10T06:02:22;25.58;;;11.70;;
49860;SDS011;35761;48.826;9.238;2024-01-10T06:04:49;23.27;;;11.07;;
49860;SDS011;35761;48.826;9.238;2024-01-10T06:07:15;24.48;;;10.98;;
49860;SDS011;35761;48.826;9.238;2024-01-10T06:09:40;22.20;;;10.07;;
49860;SDS011;35761;48.826;9.238;2024-01-10T06:12:06;23.50;;;10.98;;
49860;SDS011;35761;48.826;9.238;2024-01-10T06:14:32;27.35;;;12.05;;
49860;SDS011;35761;48.826;9.238;2024-01-10T06:16:57;22.00;;;10.63;;
49860;SDS011;35761;48.826;9.238;2024-01-10T06:19:24;25.55;;;10.60;;
49860;SDS011;35761;48.826;9.238;2024-01-10T06:21:50;21.13;;;10.23;;
49860;SDS011;35761;48.826;9.238;2024-01-10T06:24:17;29.20;;;12.00;;
49860;SDS011;35761;48.826;9.238;2024-01-10T06:26:43;30.17;;;12.02;;
49860;SDS011;35761;48.826;9.238;2024-01-10T06:29:08;26.98;;;12.60;;
49860;SDS011;35761;48.826;9.238;2024-01-10T06:31:34;23.17;;;11.05;;
49860;SDS011;35761;48.826;9.238;2024-01-10T06:33:59;26.95;;;11.45;;
49860;SDS011;35761;48.826;9.238;2024-01-10T06:36:24;32.78;;;13.65;;
49860;SDS011;35761;48.826;9.238;2024-01-10T06:38:50;24.17;;;11.73;;
49860;SDS011;35761;48.826;9.238;2024-01-10T06:41:15;23.50;;;10.52;;
49860;SDS011;35761;48.826;9.238;2024-01-10T06:43:41;26.17;;;10.93;;
49860;SDS011;35761;48.826;9.238;2024-01-10T06:46:07;26.40;;;11.80;;
49860;SDS011;35761;48.826;9.238;2024-01-10T06:48:32;27.58;;;11.32;;
49860;SDS011;35761;48.826;9.238;2024-01-10T06:50:58;28.27;;;11.48;;
49860;SDS011;35761;48.826;9.238;2024-01-10T06:53:24;24.55;;;11.40;;
49860;SDS011;35761;48.826;9.238;2024-01-10T06:55:49;26.67;;;11.68;;
49860;SDS011;35761;48.826;9.238;2024-01-10T06:58:15;24.98;;;11.15;;
49860;SDS011;35761;48.826;9.238;2024-01-10T07:00:40;25.50;;;11.02;;
49860;SDS011;35761;48.826;9.238;2024-01-10T07:03:06;33.00;;;12.77;;
49860;SDS011;35761;48.826;9.238;2024-01-10T07:05:32;26.08;;;10.45;;
49860;SDS011;35761;48.826;9.238;2024-01-10T07:07:58;30.52;;;11.93;;
49860;SDS011;35761;48.826;9.238;2024-01-10T07:10:24;23.45;;;11.02;;
49860;SDS011;35761;48.826;9.238;2024-01-10T07:12:55;32.88;;;15.27;;
49860;SDS011;35761;48.826;9.238;2024-01-10T07:15:21;32.05;;;15.18;;
49860;SDS011;35761;48.826;9.238;2024-01-10T07:17:47;44.42;;;17.65;;
49860;SDS011;35761;48.826;9.238;2024-01-10T07:20:13;29.58;;;13.65;;
49860;SDS011;35761;48.826;9.238;2024-01-10T07:22:39;27.83;;;12.90;;
49860;SDS011;35761;48.826;9.238;2024-01-10T07:25:07;31.05;;;13.13;;
49860;SDS011;35761;48.826;9.238;2024-01-10T07:27:34;29.15;;;13.05;;
49860;SDS011;35761;48.826;9.238;2024-01-10T07:29:59;26.20;;;12.98;;
49860;SDS011;35761;48.826;9.238;2024-01-10T07:32:25;32.40;;;11.73;;
49860;SDS011;35761;48.826;9.238;2024-01-10T07:34:50;25.45;;;11.57;;
49860;SDS011;35761;48.826;9.238;2024-01-10T07:37:16;30.65;;;12.32;;
49860;SDS011;35761;48.826;9.238;2024-01-10T07:39:46;24.88;;;11.15;;
49860;SDS011;35761;48.826;9.238;2024-01-10T07:42:12;31.30;;;11.68;;
49860;SDS011;35761;48.826;9.238;2024-01-10T07:44:38;25.65;;;10.88;;
49860;SDS011;35761;48.826;9.238;2024-01-10T07:47:03;24.63;;;11.70;;
49860;SDS011;35761;48.826;9.238;2024-01-10T07:49:28;29.52;;;13.90;;
49860;SDS011;35761;48.826;9.238;2024-01-10T07:51:55;29.45;;;14.90;;
49860;SDS011;35761;48.826;9.238;2024-01-10T07:54:20;30.67;;;11.98;;
49860;SDS011;35761;48.826;9.238;2024-01-10T07:56:46;29.10;;;12.98;;
49860;SDS011;35761;48.826;9.238;2024-01-10T07:59:11;26.65;;;11.73;;
49860;SDS011;35761;48.826;9.238;2024-01-10T08:01:41;34.40;;;13.93;;
49860;SDS011;35761;48.826;9.238;2024-01-10T08:04:08;29.20;;;12.35;;
49860;SDS011;35761;48.826;9.238;2024-01-10T08:06:34;24.25;;;12.68;;
49860;SDS011;35761;48.826;9.238;2024-01-10T08:09:00;34.55;;;12.10;;
49860;SDS011;35761;48.826;9.238;2024-01-10T08:11:25;30.95;;;12.05;;
49860;SDS011;35761;48.826;9.238;2024-01-10T08:13:51;26.17;;;11.98;;
49860;SDS011;35761;48.826;9.238;2024-01-10T08:16:16;29.95;;;14.55;;
49860;SDS011;35761;48.826;9.238;2024-01-10T08:18:43;34.03;;;15.95;;
49860;SDS011;35761;48.826;9.238;2024-01-10T08:21:10;28.23;;;12.00;;
49860;SDS011;35761;48.826;9.238;2024-01-10T08:23:36;31.02;;;12.55;;
49860;SDS011;35761;48.826;9.238;2024-01-10T08:26:01;30.40;;;12.63;;
49860;SDS011;35761;48.826;9.238;2024-01-10T08:28:26;27.13;;;12.95;;
49860;SDS011;35761;48.826;9.238;2024-01-10T08:30:52;26.95;;;12.27;;
49860;SDS011;35761;48.826;9.238;2024-01-10T08:33:18;29.65;;;12.77;;
49860;SDS011;35761;48.826;9.238;2024-01-10T08:35:43;35.25;;;16.05;;
49860;SDS011;35761;48.826;9.238;2024-01-10T08:38:10;32.78;;;13.93;;
49860;SDS011;35761;48.826;9.238;2024-01-10T08:40:35;29.92;;;13.23;;
49860;SDS011;35761;48.826;9.238;2024-01-10T08:43:00;29.92;;;12.77;;
49860;SDS011;35761;48.826;9.238;2024-01-10T08:45:26;27.63;;;12.82;;
49860;SDS011;35761;48.826;9.238;2024-01-10T08:47:52;27.08;;;12.18;;
49860;SDS011;35761;48.826;9.238;2024-01-10T08:50:18;27.02;;;12.68;;
49860;SDS011;35761;48.826;9.238;2024-01-10T08:52:43;28.27;;;14.52;;
49860;SDS011;35761;48.826;9.238;2024-01-10T08:55:09;27.50;;;13.98;;
49860;SDS011;35761;48.826;9.238;2024-01-10T08:57:34;29.92;;;13.55;;
49860;SDS011;35761;48.826;9.238;2024-01-10T09:00:00;32.67;;;14.10;;
49860;SDS011;35761;48.826;9.238;2024-01-10T09:02:25;27.80;;;13.55;;
49860;SDS011;35761;48.826;9.238;2024-01-10T09:04:52;28.02;;;14.40;;
49860;SDS011;35761;48.826;9.238;2024-01-10T09:07:18;29.05;;;14.20;;
49860;SDS011;35761;48.826;9.238;2024-01-10T09:09:45;33.88;;;14.48;;
49860;SDS011;35761;48.826;9.238;2024-01-10T09:12:10;30.35;;;14.63;;
49860;SDS011;35761;48.826;9.238;2024-01-10T09:14:36;38.28;;;14.95;;
49860;SDS011;35761;48.826;9.238;2024-01-10T09:17:01;31.30;;;14.55;;
49860;SDS011;35761;48.826;9.238;2024-01-10T09:19:29;31.73;;;14.65;;
49860;SDS011;35761;48.826;9.238;2024-01-10T09:21:55;32.55;;;15.68;;
49860;SDS011;35761;48.826;9.238;2024-01-10T09:24:22;28.88;;;14.65;;
49860;SDS011;35761;48.826;9.238;2024-01-10T09:26:48;33.25;;;16.33;;
49860;SDS011;35761;48.826;9.238;2024-01-10T09:29:14;28.48;;;14.43;;
49860;SDS011;35761;48.826;9.238;2024-01-10T09:31:39;29.38;;;14.48;;
49860;SDS011;35761;48.826;9.238;2024-01-10T09:34:05;32.55;;;14.50;;
49860;SDS011;35761;48.826;9.238;2024-01-10T09:36:30;31.88;;;15.35;;
49860;SDS011;35761;48.826;9.238;2024-01-10T09:38:56;33.78;;;15.70;;
49860;SDS011;35761;48.826;9.238;2024-01-10T09:41:21;35.10;;;15.77;;
49860;SDS011;35761;48.826;9.238;2024-01-10T09:43:48;32.30;;;16.42;;
49860;SDS011;35761;48.826;9.238;2024-01-10T09:46:13;39.92;;;19.63;;
49860;SDS011;35761;48.826;9.238;2024-01-10T09:48:40;32.95;;;16.70;;
49860;SDS011;35761;48.826;9.238;2024-01-10T09:51:06;40.15;;;15.05;;
49860;SDS011;35761;48.826;9.238;2024-01-10T09:53:32;33.17;;;16.52;;
49860;SDS011;35761;48.826;9.238;2024-01-10T09:56:03;34.55;;;16.45;;
49860;SDS011;35761;48.826;9.238;2024-01-10T09:58:29;32.20;;;15.88;;
49860;SDS011;35761;48.826;9.238;2024-01-10T10:00:55;36.47;;;16.45;;
49860;SDS011;35761;48.826;9.238;2024-01-10T10:03:20;36.45;;;18.15;;
49860;SDS011;35761;48.826;9.238;2024-01-10T10:05:46;36.08;;;16.55;;
49860;SDS011;35761;48.826;9.238;2024-01-10T10:08:12;35.33;;;17.50;;
49860;SDS011;35761;48.826;9.238;2024-01-10T10:10:48;37.13;;;18.50;;
49860;SDS011;35761;48.826;9.238;2024-01-10T10:13:24;32.55;;;15.88;;
49860;SDS011;35761;48.826;9.238;2024-01-10T10:15:57;34.08;;;17.45;;
49860;SDS011;35761;48.826;9.238;2024-01-10T10:18:26;34.47;;;17.10;;
49860;SDS011;35761;48.826;9.238;2024-01-10T10:23:37;38.72;;;19.05;;
49860;SDS011;35761;48.826;9.238;2024-01-10T10:26:10;32.03;;;16.48;;
49860;SDS011;35761;48.826;9.238;2024-01-10T10:28:36;41.83;;;18.35;;
49860;SDS011;35761;48.826;9.238;2024-01-10T10:31:02;36.28;;;17.67;;
49860;SDS011;35761;48.826;9.238;2024-01-10T10:33:27;38.15;;;18.45;;
49860;SDS011;35761;48.826;9.238;2024-01-10T10:35:55;35.00;;;17.17;;
49860;SDS011;35761;48.826;9.238;2024-01-10T10:38:21;33.90;;;18.13;;
49860;SDS011;35761;48.826;9.238;2024-01-10T10:40:47;38.25;;;19.35;;
49860;SDS011;35761;48.826;9.238;2024-01-10T10:43:13;37.58;;;18.35;;
49860;SDS011;35761;48.826;9.238;2024-01-10T10:45:44;37.78;;;18.05;;
49860;SDS011;35761;48.826;9.238;2024-01-10T10:48:12;34.65;;;17.38;;
49860;SDS011;35761;48.826;9.238;2024-01-10T10:53:34;32.83;;;17.58;;
49860;SDS011;35761;48.826;9.238;2024-01-10T10:56:04;36.72;;;18.27;;
49860;SDS011;35761;48.826;9.238;2024-01-10T10:58:42;34.03;;;17.63;;
49860;SDS011;35761;48.826;9.238;2024-01-10T11:01:09;38.20;;;18.10;;
49860;SDS011;35761;48.826;9.238;2024-01-10T11:03:40;33.80;;;17.70;;
49860;SDS011;35761;48.826;9.238;2024-01-10T11:06:08;43.53;;;18.20;;
49860;SDS011;35761;48.826;9.238;2024-01-10T11:08:47;36.17;;;18.92;;
49860;SDS011;35761;48.826;9.238;2024-01-10T11:13:56;37.17;;;17.90;;
49860;SDS011;35761;48.826;9.238;2024-01-10T11:21:55;34.63;;;18.45;;
49860;SDS011;35761;48.826;9.238;2024-01-10T11:24:25;33.47;;;17.83;;
49860;SDS011;35761;48.826;9.238;2024-01-10T11:27:05;35.97;;;18.80;;
49860;SDS011;35761;48.826;9.238;2024-01-10T11:29:33;36.45;;;18.05;;
49860;SDS011;35761;48.826;9.238;2024-01-10T11:31:58;35.60;;;17.73;;
49860;SDS011;35761;48.826;9.238;2024-01-10T11:34:24;38.67;;;19.63;;
49860;SDS011;35761;48.826;9.238;2024-01-10T11:37:08;31.95;;;18.20;;
49860;SDS011;35761;48.826;9.238;2024-01-10T11:39:35;36.10;;;18.63;;
49860;SDS011;35761;48.826;9.238;2024-01-10T11:42:00;34.85;;;18.85;;
49860;SDS011;35761;48.826;9.238;2024-01-10T11:44:26;31.77;;;18.65;;
49860;SDS011;35761;48.826;9.238;2024-01-10T11:46:53;38.72;;;19.65;;
49860;SDS011;35761;48.826;9.238;2024-01-10T11:49:22;30.23;;;17.95;;
49860;SDS011;35761;48.826;9.238;2024-01-10T11:51:52;47.72;;;25.45;;
49860;SDS011;35761;48.826;9.238;2024-01-10T11:54:34;33.80;;;20.92;;
49860;SDS011;35761;48.826;9.238;2024-01-10T11:57:00;31.30;;;18.17;;
49860;SDS011;35761;48.826;9.238;2024-01-10T11:59:26;32.97;;;18.85;;
49860;SDS011;35761;48.826;9.238;2024-01-10T12:01:51;36.90;;;19.30;;
49860;SDS011;35761;48.826;9.238;2024-01-10T12:04:17;31.15;;;18.48;;
49860;SDS011;35761;48.826;9.238;2024-01-10T12:06:44;31.83;;;18.77;;
49860;SDS011;35761;48.826;9.238;2024-01-10T12:09:10;34.50;;;19.13;;
49860;SDS011;35761;48.826;9.238;2024-01-10T12:11:40;30.00;;;19.17;;
49860;SDS011;35761;48.826;9.238;2024-01-10T12:14:08;33.85;;;18.63;;
49860;SDS011;35761;48.826;9.238;2024-01-10T12:16:33;36.00;;;19.90;;
49860;SDS011;35761;48.826;9.238;2024-01-10T12:18:58;33.03;;;19.80;;
49860;SDS011;35761;48.826;9.238;2024-01-10T12:21:24;33.42;;;19.55;;
49860;SDS011;35761;48.826;9.238;2024-01-10T12:23:49;31.15;;;18.88;;
49860;SDS011;35761;48.826;9.238;2024-01-10T12:26:16;33.63;;;20.13;;
49860;SDS011;35761;48.826;9.238;2024-01-10T12:28:53;32.42;;;19.88;;
49860;SDS011;35761;48.826;9.238;2024-01-10T12:31:23;31.55;;;18.83;;
49860;SDS011;35761;48.826;9.238;2024-01-10T12:33:50;55.10;;;34.42;;
49860;SDS011;35761;48.826;9.238;2024-01-10T12:36:16;45.25;;;26.88;;
49860;SDS011;35761;48.826;9.238;2024-01-10T12:38:43;36.78;;;21.30;;
49860;SDS011;35761;48.826;9.238;2024-01-10T12:41:14;34.90;;;19.92;;
49860;SDS011;35761;48.826;9.238;2024-01-10T12:43:40;33.88;;;20.75;;
49860;SDS011;35761;48.826;9.238;2024-01-10T12:46:09;31.27;;;19.92;;
49860;SDS011;35761;48.826;9.238;2024-01-10T12:48:39;30.48;;;19.45;;
49860;SDS011;35761;48.826;9.238;2024-01-10T12:51:08;33.22;;;20.15;;
49860;SDS011;35761;48.826;9.238;2024-01-10T12:53:37;35.45;;;19.58;;
49860;SDS011;35761;48.826;9.238;2024-01-10T12:56:08;34.08;;;19.02;;
49860;SDS011;35761;48.826;9.238;2024-01-10T12:58:37;31.92;;;19.58;;
49860;SDS011;35761;48.826;9.238;2024-01-10T13:01:02;38.20;;;20.98;;
49860;SDS011;35761;48.826;9.238;2024-01-10T13:03:31;30.35;;;19.50;;
49860;SDS011;35761;48.826;9.238;2024-01-10T13:05:57;31.95;;;20.02;;
49860;SDS011;35761;48.826;9.238;2024-01-10T13:08:23;32.97;;;19.88;;
49860;SDS011;35761;48.826;9.238;2024-01-10T13:10:49;34.75;;;19.92;;
49860;SDS011;35761;48.826;9.238;2024-01-10T13:13:14;34.38;;;20.98;;
49860;SDS011;35761;48.826;9.238;2024-01-10T13:15:41;33.13;;;19.00;;
49860;SDS011;35761;48.826;9.238;2024-01-10T13:18:07;33.70;;;20.17;;
49860;SDS011;35761;48.826;9.238;2024-01-10T13:20:35;34.65;;;20.20;;
49860;SDS011;35761;48.826;9.238;2024-01-10T13:23:00;34.42;;;20.58;;
49860;SDS011;35761;48.826;9.238;2024-01-10T13:25:26;30.45;;;20.10;;
49860;SDS011;35761;48.826;9.238;2024-01-10T13:27:52;31.60;;;20.17;;
49860;SDS011;35761;48.826;9.238;2024-01-10T13:30:18;31.65;;;21.65;;
49860;SDS011;35761;48.826;9.238;2024-01-10T13:32:44;33.65;;;20.50;;
49860;SDS011;35761;48.826;9.238;2024-01-10T13:35:12;31.85;;;21.42;;
49860;SDS011;35761;48.826;9.238;2024-01-10T13:37:43;29.63;;;20.48;;
49860;SDS011;35761;48.826;9.238;2024-01-10T13:40:10;35.13;;;20.77;;
49860;SDS011;35761;48.826;9.238;2024-01-10T13:42:38;32.30;;;21.70;;
49860;SDS011;35761;48.826;9.238;2024-01-10T13:45:05;31.48;;;19.85;;
49860;SDS011;35761;48.826;9.238;2024-01-10T13:47:31;30.35;;;19.27;;
49860;SDS011;35761;48.826;9.238;2024-01-10T13:49:58;28.92;;;20.38;;
49860;SDS011;35761;48.826;9.238;2024-01-10T13:52:24;32.70;;;20.75;;
49860;SDS011;35761;48.826;9.238;2024-01-10T13:54:49;29.15;;;20.70;;
49860;SDS011;35761;48.826;9.238;2024-01-10T13:57:15;33.85;;;20.35;;
49860;SDS011;35761;48.826;9.238;2024-01-10T13:59:40;29.17;;;20.35;;
49860;SDS011;35761;48.826;9.238;2024-01-10T14:02:06;31.05;;;21.30;;
49860;SDS011;35761;48.826;9.238;2024-01-10T14:04:32;26.63;;;19.50;;
49860;SDS011;35761;48.826;9.238;2024-01-10T14:06:58;30.98;;;19.42;;
49860;SDS011;35761;48.826;9.238;2024-01-10T14:09:24;31.35;;;19.88;;
49860;SDS011;35761;48.826;9.238;2024-01-10T14:11:49;31.48;;;20.98;;
49860;SDS011;35761;48.826;9.238;2024-01-10T14:14:15;28.48;;;19.60;;
49860;SDS011;35761;48.826;9.238;2024-01-10T14:16:41;30.00;;;20.27;;
49860;SDS011;35761;48.826;9.238;2024-01-10T14:19:07;35.03;;;21.13;;
49860;SDS011;35761;48.826;9.238;2024-01-10T14:21:33;28.27;;;19.60;;
49860;SDS011;35761;48.826;9.238;2024-01-10T14:23:59;27.80;;;19.90;;
49860;SDS011;35761;48.826;9.238;2024-01-10T14:26:24;33.42;;;21.05;;
49860;SDS011;35761;48.826;9.238;2024-01-10T14:28:51;32.40;;;21.80;;